createdAt,value
2018-12-27T00:01:21.747Z,26.17
2018-12-27T00:05:26.749Z,31.47
2018-12-27T00:09:31.788Z,27.23
2018-12-27T00:13:36.912Z,26.50
2018-12-27T00:17:41.890Z,29.43
2018-12-27T00:21:46.829Z,29.60
2018-12-27T00:25:52.278Z,31.63
2018-12-27T00:30:00.722Z,32.63
2018-12-27T00:34:07.394Z,28.23
2018-12-27T00:38:12.496Z,28.27
2018-12-27T00:42:17.539Z,29.43
2018-12-27T00:46:22.583Z,34.13
2018-12-27T00:50:27.715Z,29.13
2018-12-27T00:54:32.730Z,31.20
2018-12-27T00:58:37.858Z,29.17
2018-12-27T01:02:42.871Z,32.77
2018-12-27T01:06:47.886Z,30.03
2018-12-27T01:10:53.274Z,32.40
2018-12-27T01:14:58.380Z,28.23
2018-12-27T01:19:03.744Z,27.90
2018-12-27T01:23:08.782Z,26.13
2018-12-27T01:27:13.821Z,25.27
2018-12-27T01:31:18.845Z,27.23
2018-12-27T01:35:23.888Z,29.53
2018-12-27T01:39:29.035Z,30.73
2018-12-27T01:43:34.066Z,30.20
2018-12-27T01:47:39.183Z,28.13
2018-12-27T01:51:44.232Z,30.57
2018-12-27T01:55:49.305Z,30.07
2018-12-27T01:59:55.104Z,30.60
2018-12-27T02:04:00.214Z,35.93
2018-12-27T02:08:05.241Z,29.02
2018-12-27T02:12:10.402Z,30.77
2018-12-27T02:16:15.415Z,30.10
2018-12-27T02:20:21.483Z,27.70
2018-12-27T02:24:26.565Z,28.73
2018-12-27T02:28:31.567Z,30.63
2018-12-27T02:32:36.855Z,29.67
2018-12-27T02:36:41.908Z,32.70
2018-12-27T02:40:46.994Z,35.03
2018-12-27T02:44:52.030Z,31.00
2018-12-27T02:48:57.272Z,28.50
2018-12-27T02:53:02.412Z,38.47
2018-12-27T02:57:07.451Z,34.13
2018-12-27T03:01:12.523Z,31.67
2018-12-27T03:05:17.564Z,32.00
2018-12-27T03:09:22.611Z,36.27
2018-12-27T03:13:27.737Z,34.33
2018-12-27T03:17:32.779Z,29.13
2018-12-27T03:21:37.821Z,28.63
2018-12-27T03:25:42.956Z,30.13
2018-12-27T03:29:47.998Z,33.10
2018-12-27T03:33:53.112Z,33.87
2018-12-27T03:37:58.135Z,30.63
2018-12-27T03:42:03.139Z,31.13
2018-12-27T03:46:08.209Z,27.20
2018-12-27T03:50:13.305Z,31.33
2018-12-27T03:54:18.348Z,31.40
2018-12-27T03:58:23.536Z,31.77
2018-12-27T04:02:28.615Z,30.87
2018-12-27T04:06:33.679Z,30.53
2018-12-27T04:10:38.725Z,36.03
2018-12-27T04:14:43.866Z,33.83
2018-12-27T04:18:49.142Z,35.97
2018-12-27T04:22:54.531Z,29.97
2018-12-27T04:26:59.594Z,27.17
2018-12-27T04:31:04.952Z,33.03
2018-12-27T04:35:10.300Z,25.37
2018-12-27T04:39:15.409Z,29.63
2018-12-27T04:43:31.196Z,30.97
2018-12-27T04:47:36.247Z,29.67
2018-12-27T04:51:41.353Z,31.47
2018-12-27T04:55:46.405Z,25.93
2018-12-27T04:59:51.463Z,26.90
2018-12-27T05:03:56.516Z,33.77
2018-12-27T05:08:01.662Z,31.03
2018-12-27T05:12:06.733Z,30.97
2018-12-27T05:16:11.771Z,25.13
2018-12-27T05:20:16.917Z,25.17
2018-12-27T05:24:22.006Z,25.80
2018-12-27T05:28:27.081Z,31.40
2018-12-27T05:32:32.068Z,30.73
2018-12-27T05:36:37.037Z,27.80
2018-12-27T05:40:42.079Z,24.87
2018-12-27T05:44:47.157Z,24.37
2018-12-27T05:48:52.184Z,25.93
2018-12-27T05:52:57.249Z,22.70
2018-12-27T05:57:02.309Z,30.93
2018-12-27T06:01:07.353Z,27.83
2018-12-27T06:05:12.459Z,31.43
2018-12-27T06:09:17.556Z,28.60
2018-12-27T06:13:24.088Z,29.80
2018-12-27T06:17:29.222Z,28.83
2018-12-27T06:21:34.397Z,25.30
2018-12-27T06:25:51.293Z,21.80
2018-12-27T06:29:56.534Z,25.40
2018-12-27T06:34:01.613Z,24.33
2018-12-27T06:38:06.713Z,20.70
2018-12-27T06:42:11.860Z,23.40
2018-12-27T06:46:16.843Z,25.10
2018-12-27T06:50:21.802Z,28.47
2018-12-27T06:54:26.899Z,36.83
2018-12-27T06:58:37.719Z,31.33
2018-12-27T07:02:57.806Z,31.03
2018-12-27T07:07:02.904Z,39.63
2018-12-27T07:11:07.970Z,37.53
2018-12-27T07:15:13.115Z,30.70
2018-12-27T07:19:19.790Z,29.30
2018-12-27T07:23:24.936Z,20.87
2018-12-27T07:27:29.944Z,27.67
2018-12-27T07:31:34.972Z,32.47
2018-12-27T07:35:40.033Z,30.20
2018-12-27T07:39:45.085Z,51.87
2018-12-27T07:43:51.860Z,40.80
2018-12-27T07:47:56.938Z,25.73
2018-12-27T07:52:01.996Z,29.07
2018-12-27T07:56:07.066Z,30.03
2018-12-27T08:00:12.147Z,35.63
2018-12-27T08:04:17.249Z,24.10
2018-12-27T08:08:22.223Z,25.33
2018-12-27T08:12:27.260Z,29.80
2018-12-27T08:16:32.337Z,31.10
2018-12-27T08:20:48.432Z,26.53
2018-12-27T08:24:53.521Z,29.07
2018-12-27T08:28:58.644Z,26.17
2018-12-27T08:33:05.511Z,25.10
2018-12-27T08:37:10.543Z,23.23
2018-12-27T08:41:15.596Z,25.47
2018-12-27T08:45:20.783Z,26.60
2018-12-27T08:49:25.938Z,18.70
2018-12-27T08:53:31.060Z,22.30
2018-12-27T08:57:36.165Z,15.20
2018-12-27T09:01:41.255Z,19.67
2018-12-27T09:05:46.436Z,16.13
2018-12-27T09:09:51.509Z,13.50
2018-12-27T09:13:56.862Z,10.97
2018-12-27T09:18:01.919Z,13.73
2018-12-27T09:22:07.174Z,17.10
2018-12-27T09:26:31.337Z,14.73
2018-12-27T09:30:48.447Z,12.90
2018-12-27T09:35:02.282Z,11.33
2018-12-27T09:39:07.658Z,10.97
2018-12-27T09:43:12.660Z,13.27
2018-12-27T09:47:17.711Z,14.93
2018-12-27T09:51:22.843Z,12.60
2018-12-27T09:55:27.830Z,10.53
2018-12-27T09:59:32.921Z,10.30
2018-12-27T10:03:37.998Z,11.00
2018-12-27T10:07:43.061Z,10.53
2018-12-27T10:11:48.177Z,9.73
2018-12-27T10:15:53.332Z,9.67
2018-12-27T10:19:58.405Z,12.37
2018-12-27T10:24:03.341Z,10.53
2018-12-27T10:28:08.298Z,10.40
2018-12-27T10:32:13.319Z,10.13
2018-12-27T10:36:18.396Z,11.43
2018-12-27T10:40:23.340Z,15.37
2018-12-27T10:44:28.409Z,11.40
2018-12-27T10:48:33.337Z,9.93
2018-12-27T10:52:38.396Z,11.43
2018-12-27T10:56:43.509Z,10.60
2018-12-27T11:01:00.096Z,9.93
2018-12-27T11:05:05.577Z,10.43
2018-12-27T11:09:10.899Z,9.77
2018-12-27T11:13:15.987Z,9.00
2018-12-27T11:17:21.623Z,9.40
2018-12-27T11:21:26.674Z,9.43
2018-12-27T11:25:31.742Z,10.10
2018-12-27T11:29:36.677Z,10.07
2018-12-27T11:33:41.754Z,10.77
2018-12-27T11:37:46.803Z,12.77
2018-12-27T11:41:51.853Z,13.07
2018-12-27T11:45:56.826Z,13.03
2018-12-27T11:50:01.892Z,13.83
2018-12-27T11:54:06.968Z,12.33
2018-12-27T11:58:12.009Z,13.27
2018-12-27T12:02:17.090Z,13.03
2018-12-27T12:06:22.165Z,11.70
2018-12-27T12:10:27.232Z,9.73
2018-12-27T12:14:32.199Z,9.60
2018-12-27T12:18:37.291Z,9.07
2018-12-27T12:22:43.951Z,10.67
2018-12-27T12:26:49.078Z,10.00
2018-12-27T12:30:54.213Z,12.40
2018-12-27T12:34:59.379Z,8.83
2018-12-27T12:39:16.353Z,10.20
2018-12-27T12:43:21.308Z,9.10
2018-12-27T12:47:26.653Z,11.23
2018-12-27T12:51:33.306Z,10.30
2018-12-27T12:55:38.364Z,10.50
2018-12-27T12:59:43.425Z,11.37
2018-12-27T13:08:05.672Z,8.70
2018-12-27T13:12:10.627Z,9.90
2018-12-27T13:16:15.743Z,7.10
2018-12-27T13:20:20.706Z,11.53
2018-12-27T13:24:25.795Z,10.30
2018-12-27T13:28:30.843Z,10.93
2018-12-27T13:32:35.904Z,9.00
2018-12-27T13:36:40.934Z,11.67
2018-12-27T13:40:46.084Z,12.03
2018-12-27T13:44:51.200Z,14.30
2018-12-27T13:48:56.374Z,11.30
2018-12-27T13:53:01.469Z,13.17
2018-12-27T13:57:06.454Z,11.50
2018-12-27T14:01:11.443Z,15.07
2018-12-27T14:05:16.518Z,10.67
2018-12-27T14:09:21.522Z,17.47
2018-12-27T14:13:26.549Z,21.27
2018-12-27T14:17:31.548Z,20.30
2018-12-27T14:21:36.479Z,20.40
2018-12-27T14:25:41.563Z,22.57
2018-12-27T14:29:46.630Z,19.33
2018-12-27T14:33:51.720Z,20.53
2018-12-27T14:38:12.197Z,20.70
2018-12-27T14:42:17.194Z,21.60
2018-12-27T14:46:22.339Z,22.20
2018-12-27T14:50:27.470Z,17.95
2018-12-27T14:54:32.817Z,17.07
2018-12-27T14:58:37.793Z,18.10
2018-12-27T15:02:42.939Z,21.23
2018-12-27T15:06:48.876Z,19.63
2018-12-27T15:11:00.382Z,22.20
2018-12-27T15:15:05.602Z,17.33
2018-12-27T15:19:10.598Z,20.30
2018-12-27T15:23:15.535Z,22.97
2018-12-27T15:27:20.499Z,22.57
2018-12-27T15:31:25.838Z,19.73
2018-12-27T15:35:30.889Z,18.40
2018-12-27T15:39:35.870Z,17.87
2018-12-27T15:43:40.882Z,23.07
2018-12-27T15:47:45.984Z,16.37
2018-12-27T15:51:50.923Z,17.83
2018-12-27T15:55:56.015Z,26.07
2018-12-27T16:00:01.068Z,17.00
2018-12-27T16:04:06.045Z,21.50
2018-12-27T16:08:11.128Z,14.63
2018-12-27T16:12:16.411Z,16.77
2018-12-27T16:16:21.484Z,21.73
2018-12-27T16:20:27.770Z,20.17
2018-12-27T16:24:32.764Z,21.60
2018-12-27T16:28:38.018Z,20.07
2018-12-27T16:33:02.132Z,15.43
2018-12-27T16:37:09.199Z,16.50
2018-12-27T16:41:19.712Z,16.63
2018-12-27T16:45:24.770Z,20.80
2018-12-27T16:49:29.957Z,20.80
2018-12-27T16:53:35.335Z,24.07
2018-12-27T16:57:40.534Z,23.53
2018-12-27T17:01:45.615Z,28.00
2018-12-27T17:05:50.720Z,19.73
2018-12-27T17:09:55.833Z,20.57
2018-12-27T17:14:20.032Z,25.97
2018-12-27T17:18:25.045Z,23.03
2018-12-27T17:22:30.035Z,20.17
2018-12-27T17:26:35.110Z,27.50
2018-12-27T17:30:40.223Z,32.17
2018-12-27T17:34:45.329Z,28.87
2018-12-27T17:38:50.580Z,26.67
2018-12-27T17:42:55.584Z,33.63
2018-12-27T17:47:00.648Z,25.17
2018-12-27T17:51:05.927Z,27.43
2018-12-27T17:55:10.926Z,28.67
2018-12-27T17:59:16.007Z,27.87
2018-12-27T18:03:20.960Z,27.90
2018-12-27T18:07:30.548Z,24.97
2018-12-27T18:11:38.539Z,33.90
2018-12-27T18:15:43.526Z,26.27
2018-12-27T18:19:48.633Z,23.63
2018-12-27T18:23:53.681Z,21.50
2018-12-27T18:27:58.962Z,28.13
2018-12-27T18:32:04.049Z,30.90
2018-12-27T18:36:09.168Z,41.73
2018-12-27T18:40:14.326Z,31.55
2018-12-27T18:44:19.346Z,25.20
2018-12-27T18:48:24.409Z,30.03
2018-12-27T18:56:59.471Z,30.57
2018-12-27T19:01:04.659Z,28.20
2018-12-27T19:05:09.737Z,37.27
2018-12-27T19:09:14.744Z,38.03
2018-12-27T19:13:19.763Z,26.30
2018-12-27T19:17:29.417Z,36.97
2018-12-27T19:22:10.578Z,33.27
2018-12-27T19:26:15.592Z,29.00
2018-12-27T19:30:20.724Z,36.07
2018-12-27T19:34:25.703Z,37.97
2018-12-27T19:38:30.833Z,44.80
2018-12-27T19:42:35.903Z,36.83
2018-12-27T19:46:41.025Z,36.17
2018-12-27T19:50:46.092Z,38.43
2018-12-27T19:54:51.357Z,38.80
2018-12-27T19:58:56.454Z,35.77
2018-12-27T20:03:01.530Z,38.30
2018-12-27T20:07:06.622Z,32.53
2018-12-27T20:11:11.826Z,47.23
2018-12-27T20:15:16.858Z,37.30
2018-12-27T20:19:21.867Z,40.37
2018-12-27T20:23:27.082Z,32.37
2018-12-27T20:27:32.165Z,28.20
2018-12-27T20:36:06.533Z,26.17
2018-12-27T20:40:11.624Z,30.47
2018-12-27T20:44:16.934Z,35.67
2018-12-27T20:48:22.053Z,37.73
2018-12-27T20:52:27.046Z,37.87
2018-12-27T20:56:32.052Z,44.17
2018-12-27T21:00:38.707Z,41.70
2018-12-27T21:04:43.792Z,37.40
2018-12-27T21:08:48.790Z,36.63
2018-12-27T21:12:54.115Z,34.30
2018-12-27T21:16:59.180Z,39.70
2018-12-27T21:21:04.241Z,40.50
2018-12-27T21:25:09.353Z,35.77
2018-12-27T21:29:14.410Z,33.83
2018-12-27T21:33:19.730Z,36.57
2018-12-27T21:37:24.734Z,31.93
2018-12-27T21:41:29.784Z,38.67
2018-12-27T21:45:34.842Z,35.73
2018-12-27T21:49:39.988Z,37.83
2018-12-27T21:53:45.094Z,37.40
2018-12-27T21:57:50.481Z,37.77
2018-12-27T22:01:55.545Z,40.13
2018-12-27T22:06:00.624Z,30.63
2018-12-27T22:10:06.395Z,36.30
2018-12-27T22:14:11.427Z,35.47
2018-12-27T22:18:16.489Z,34.73
2018-12-27T22:22:21.559Z,42.33
2018-12-27T22:26:26.578Z,33.97
2018-12-27T22:30:50.542Z,36.00
2018-12-27T22:34:55.582Z,34.70
2018-12-27T22:39:00.661Z,38.90
2018-12-27T22:43:05.698Z,40.13
2018-12-27T22:47:10.710Z,48.30
2018-12-27T22:51:15.777Z,43.63
2018-12-27T22:55:28.027Z,44.80
2018-12-27T22:59:33.117Z,43.60
2018-12-27T23:03:38.142Z,43.17
2018-12-27T23:07:43.385Z,41.50
2018-12-27T23:11:48.433Z,38.93
2018-12-27T23:15:53.499Z,36.03
2018-12-27T23:19:58.568Z,37.83
2018-12-27T23:24:03.549Z,31.77
2018-12-27T23:28:08.536Z,35.27
2018-12-27T23:32:13.497Z,32.47
2018-12-27T23:36:18.629Z,33.77
2018-12-27T23:40:23.662Z,32.83
2018-12-27T23:44:28.611Z,38.00
2018-12-27T23:48:33.633Z,37.97
2018-12-27T23:52:38.634Z,35.17
2018-12-27T23:56:43.770Z,33.60
